sensor_id;sensor_type;location;lat;lon;timestamp;P1;durP1;ratioP1;P2;durP2;ratioP2
58864;SDS011;45702;52.982;6.658;2023-04-25T00:01:56;28.17;;;6.38;;
58864;SDS011;45702;52.982;6.658;2023-04-25T00:04:22;30.17;;;6.15;;
58864;SDS011;45702;52.982;6.658;2023-04-25T00:06:48;37.90;;;6.40;;
58864;SDS011;45702;52.982;6.658;2023-04-25T00:09:14;38.78;;;7.25;;
58864;SDS011;45702;52.982;6.658;2023-04-25T00:11:40;27.90;;;6.00;;
58864;SDS011;45702;52.982;6.658;2023-04-25T00:14:06;28.67;;;6.00;;
58864;SDS011;45702;52.982;6.658;2023-04-25T00:16:31;30.50;;;6.40;;
58864;SDS011;45702;52.982;6.658;2023-04-25T00:19:00;35.57;;;6.93;;
58864;SDS011;45702;52.982;6.658;2023-04-25T00:21:27;35.33;;;6.38;;
58864;SDS011;45702;52.982;6.658;2023-04-25T00:23:53;36.08;;;6.38;;
58864;SDS011;45702;52.982;6.658;2023-04-25T00:26:19;33.45;;;6.60;;
58864;SDS011;45702;52.982;6.658;2023-04-25T00:28:46;33.65;;;7.18;;
58864;SDS011;45702;52.982;6.658;2023-04-25T00:31:12;29.13;;;6.25;;
58864;SDS011;45702;52.982;6.658;2023-04-25T00:33:38;42.20;;;6.57;;
58864;SDS011;45702;52.982;6.658;2023-04-25T00:36:04;29.67;;;6.40;;
58864;SDS011;45702;52.982;6.658;2023-04-25T00:38:30;32.67;;;6.43;;
58864;SDS011;45702;52.982;6.658;2023-04-25T00:40:55;31.88;;;6.55;;
58864;SDS011;45702;52.982;6.658;2023-04-25T00:43:23;43.85;;;7.55;;
58864;SDS011;45702;52.982;6.658;2023-04-25T00:45:52;31.27;;;6.50;;
58864;SDS011;45702;52.982;6.658;2023-04-25T00:48:18;30.55;;;6.65;;
58864;SDS011;45702;52.982;6.658;2023-04-25T00:50:48;35.20;;;6.80;;
58864;SDS011;45702;52.982;6.658;2023-04-25T00:53:23;31.77;;;7.50;;
58864;SDS011;45702;52.982;6.658;2023-04-25T00:55:51;27.10;;;6.45;;
58864;SDS011;45702;52.982;6.658;2023-04-25T00:58:17;33.15;;;6.70;;
58864;SDS011;45702;52.982;6.658;2023-04-25T01:00:44;35.10;;;6.20;;
58864;SDS011;45702;52.982;6.658;2023-04-25T01:03:12;31.63;;;7.63;;
58864;SDS011;45702;52.982;6.658;2023-04-25T01:05:41;33.60;;;6.72;;
58864;SDS011;45702;52.982;6.658;2023-04-25T01:08:07;35.25;;;6.90;;
58864;SDS011;45702;52.982;6.658;2023-04-25T01:10:33;40.15;;;6.97;;
58864;SDS011;45702;52.982;6.658;2023-04-25T01:12:59;38.15;;;6.53;;
58864;SDS011;45702;52.982;6.658;2023-04-25T01:15:25;40.45;;;6.15;;
58864;SDS011;45702;52.982;6.658;2023-04-25T01:17:50;41.33;;;6.85;;
58864;SDS011;45702;52.982;6.658;2023-04-25T01:20:18;38.85;;;6.70;;
58864;SDS011;45702;52.982;6.658;2023-04-25T01:22:48;32.25;;;6.15;;
58864;SDS011;45702;52.982;6.658;2023-04-25T01:25:14;33.25;;;6.13;;
58864;SDS011;45702;52.982;6.658;2023-04-25T01:27:40;30.65;;;5.93;;
58864;SDS011;45702;52.982;6.658;2023-04-25T01:30:06;42.50;;;5.88;;
58864;SDS011;45702;52.982;6.658;2023-04-25T01:32:33;33.75;;;5.38;;
58864;SDS011;45702;52.982;6.658;2023-04-25T01:35:05;38.70;;;6.78;;
58864;SDS011;45702;52.982;6.658;2023-04-25T01:37:36;32.90;;;5.80;;
58864;SDS011;45702;52.982;6.658;2023-04-25T01:40:03;26.95;;;5.45;;
58864;SDS011;45702;52.982;6.658;2023-04-25T01:42:31;29.23;;;5.50;;
58864;SDS011;45702;52.982;6.658;2023-04-25T01:44:57;41.72;;;6.40;;
58864;SDS011;45702;52.982;6.658;2023-04-25T01:47:23;29.40;;;5.57;;
58864;SDS011;45702;52.982;6.658;2023-04-25T01:49:49;28.30;;;5.40;;
58864;SDS011;45702;52.982;6.658;2023-04-25T01:52:14;32.13;;;5.85;;
58864;SDS011;45702;52.982;6.658;2023-04-25T01:54:40;38.70;;;5.68;;
58864;SDS011;45702;52.982;6.658;2023-04-25T01:57:09;42.38;;;6.60;;
58864;SDS011;45702;52.982;6.658;2023-04-25T01:59:36;23.60;;;4.90;;
58864;SDS011;45702;52.982;6.658;2023-04-25T02:02:02;26.98;;;5.00;;
58864;SDS011;45702;52.982;6.658;2023-04-25T02:04:30;30.42;;;5.57;;
58864;SDS011;45702;52.982;6.658;2023-04-25T02:06:56;23.27;;;5.18;;
58864;SDS011;45702;52.982;6.658;2023-04-25T02:09:22;33.40;;;4.82;;
58864;SDS011;45702;52.982;6.658;2023-04-25T02:11:48;31.00;;;5.18;;
58864;SDS011;45702;52.982;6.658;2023-04-25T02:14:14;31.98;;;5.78;;
58864;SDS011;45702;52.982;6.658;2023-04-25T02:16:40;23.45;;;4.82;;
58864;SDS011;45702;52.982;6.658;2023-04-25T02:19:08;22.85;;;4.80;;
58864;SDS011;45702;52.982;6.658;2023-04-25T02:21:35;33.50;;;4.57;;
58864;SDS011;45702;52.982;6.658;2023-04-25T02:24:01;28.20;;;4.90;;
58864;SDS011;45702;52.982;6.658;2023-04-25T02:26:27;31.10;;;5.35;;
58864;SDS011;45702;52.982;6.658;2023-04-25T02:28:53;35.50;;;5.40;;
58864;SDS011;45702;52.982;6.658;2023-04-25T02:31:19;26.42;;;4.75;;
58864;SDS011;45702;52.982;6.658;2023-04-25T02:33:45;37.00;;;5.30;;
58864;SDS011;45702;52.982;6.658;2023-04-25T02:36:11;28.85;;;5.18;;
58864;SDS011;45702;52.982;6.658;2023-04-25T02:38:37;29.17;;;5.15;;
58864;SDS011;45702;52.982;6.658;2023-04-25T02:41:03;27.58;;;4.88;;
58864;SDS011;45702;52.982;6.658;2023-04-25T02:43:28;24.30;;;4.30;;
58864;SDS011;45702;52.982;6.658;2023-04-25T02:45:54;29.35;;;4.65;;
58864;SDS011;45702;52.982;6.658;2023-04-25T02:48:20;28.33;;;4.72;;
58864;SDS011;45702;52.982;6.658;2023-04-25T02:50:46;27.60;;;4.45;;
58864;SDS011;45702;52.982;6.658;2023-04-25T02:53:11;29.48;;;5.00;;
58864;SDS011;45702;52.982;6.658;2023-04-25T02:55:37;28.33;;;4.32;;
58864;SDS011;45702;52.982;6.658;2023-04-25T02:58:03;30.33;;;4.78;;
58864;SDS011;45702;52.982;6.658;2023-04-25T03:00:29;24.60;;;4.85;;
58864;SDS011;45702;52.982;6.658;2023-04-25T03:02:55;29.95;;;4.80;;
58864;SDS011;45702;52.982;6.658;2023-04-25T03:05:21;29.23;;;4.55;;
58864;SDS011;45702;52.982;6.658;2023-04-25T03:07:46;36.13;;;5.32;;
58864;SDS011;45702;52.982;6.658;2023-04-25T03:10:12;33.90;;;5.15;;
58864;SDS011;45702;52.982;6.658;2023-04-25T03:12:38;24.25;;;4.43;;
58864;SDS011;45702;52.982;6.658;2023-04-25T03:15:04;30.85;;;4.60;;
58864;SDS011;45702;52.982;6.658;2023-04-25T03:17:30;27.70;;;4.68;;
58864;SDS011;45702;52.982;6.658;2023-04-25T03:19:56;24.80;;;4.38;;
58864;SDS011;45702;52.982;6.658;2023-04-25T03:22:22;30.83;;;4.70;;
58864;SDS011;45702;52.982;6.658;2023-04-25T03:24:49;26.10;;;4.50;;
58864;SDS011;45702;52.982;6.658;2023-04-25T03:27:15;22.05;;;3.83;;
58864;SDS011;45702;52.982;6.658;2023-04-25T03:29:41;35.28;;;4.47;;
58864;SDS011;45702;52.982;6.658;2023-04-25T03:32:07;19.80;;;3.90;;
58864;SDS011;45702;52.982;6.658;2023-04-25T03:34:32;43.05;;;4.43;;
58864;SDS011;45702;52.982;6.658;2023-04-25T03:36:58;23.88;;;3.92;;
58864;SDS011;45702;52.982;6.658;2023-04-25T03:39:25;28.33;;;4.75;;
58864;SDS011;45702;52.982;6.658;2023-04-25T03:41:50;30.25;;;4.18;;
58864;SDS011;45702;52.982;6.658;2023-04-25T03:44:16;25.52;;;4.07;;
58864;SDS011;45702;52.982;6.658;2023-04-25T03:46:42;20.80;;;3.92;;
58864;SDS011;45702;52.982;6.658;2023-04-25T03:49:07;25.83;;;4.28;;
58864;SDS011;45702;52.982;6.658;2023-04-25T03:51:33;26.35;;;4.10;;
58864;SDS011;45702;52.982;6.658;2023-04-25T03:53:59;24.98;;;4.30;;
58864;SDS011;45702;52.982;6.658;2023-04-25T03:56:25;25.05;;;3.90;;
58864;SDS011;45702;52.982;6.658;2023-04-25T03:58:50;32.20;;;3.65;;
58864;SDS011;45702;52.982;6.658;2023-04-25T04:01:16;17.67;;;3.75;;
58864;SDS011;45702;52.982;6.658;2023-04-25T04:03:42;25.00;;;4.28;;
58864;SDS011;45702;52.982;6.658;2023-04-25T04:06:07;20.95;;;3.65;;
58864;SDS011;45702;52.982;6.658;2023-04-25T04:08:34;24.35;;;3.75;;
58864;SDS011;45702;52.982;6.658;2023-04-25T04:11:00;23.75;;;3.42;;
58864;SDS011;45702;52.982;6.658;2023-04-25T04:13:26;19.70;;;3.50;;
58864;SDS011;45702;52.982;6.658;2023-04-25T04:15:53;20.77;;;3.47;;
58864;SDS011;45702;52.982;6.658;2023-04-25T04:18:19;22.20;;;4.07;;
58864;SDS011;45702;52.982;6.658;2023-04-25T04:20:45;21.52;;;2.95;;
58864;SDS011;45702;52.982;6.658;2023-04-25T04:23:11;17.67;;;3.15;;
58864;SDS011;45702;52.982;6.658;2023-04-25T04:25:37;22.20;;;3.15;;
58864;SDS011;45702;52.982;6.658;2023-04-25T04:28:03;17.00;;;2.88;;
58864;SDS011;45702;52.982;6.658;2023-04-25T04:30:28;10.07;;;3.22;;
58864;SDS011;45702;52.982;6.658;2023-04-25T04:32:55;20.35;;;3.25;;
58864;SDS011;45702;52.982;6.658;2023-04-25T04:35:21;16.52;;;3.20;;
58864;SDS011;45702;52.982;6.658;2023-04-25T04:37:47;19.90;;;3.03;;
58864;SDS011;45702;52.982;6.658;2023-04-25T04:40:13;15.30;;;2.72;;
58864;SDS011;45702;52.982;6.658;2023-04-25T04:42:43;15.95;;;2.88;;
58864;SDS011;45702;52.982;6.658;2023-04-25T04:45:10;18.25;;;2.90;;
58864;SDS011;45702;52.982;6.658;2023-04-25T04:47:36;15.35;;;3.03;;
58864;SDS011;45702;52.982;6.658;2023-04-25T04:50:02;16.23;;;2.90;;
58864;SDS011;45702;52.982;6.658;2023-04-25T04:52:29;12.57;;;3.13;;
58864;SDS011;45702;52.982;6.658;2023-04-25T04:54:55;13.10;;;3.20;;
58864;SDS011;45702;52.982;6.658;2023-04-25T04:57:21;16.00;;;3.20;;
58864;SDS011;45702;52.982;6.658;2023-04-25T04:59:47;11.93;;;2.58;;
58864;SDS011;45702;52.982;6.658;2023-04-25T05:02:12;16.88;;;2.97;;
58864;SDS011;45702;52.982;6.658;2023-04-25T05:04:38;16.42;;;2.97;;
58864;SDS011;45702;52.982;6.658;2023-04-25T05:07:04;13.68;;;3.40;;
58864;SDS011;45702;52.982;6.658;2023-04-25T05:09:29;13.52;;;3.10;;
58864;SDS011;45702;52.982;6.658;2023-04-25T05:11:55;18.58;;;3.40;;
58864;SDS011;45702;52.982;6.658;2023-04-25T05:14:20;17.92;;;3.03;;
58864;SDS011;45702;52.982;6.658;2023-04-25T05:16:47;17.30;;;2.80;;
58864;SDS011;45702;52.982;6.658;2023-04-25T05:19:13;15.30;;;2.90;;
58864;SDS011;45702;52.982;6.658;2023-04-25T05:21:39;18.38;;;3.53;;
58864;SDS011;45702;52.982;6.658;2023-04-25T05:24:14;24.38;;;3.50;;
58864;SDS011;45702;52.982;6.658;2023-04-25T05:26:40;16.13;;;2.88;;
58864;SDS011;45702;52.982;6.658;2023-04-25T05:29:05;14.82;;;3.08;;
58864;SDS011;45702;52.982;6.658;2023-04-25T05:31:31;14.07;;;2.90;;
58864;SDS011;45702;52.982;6.658;2023-04-25T05:33:57;22.70;;;3.35;;
58864;SDS011;45702;52.982;6.658;2023-04-25T05:36:23;17.35;;;3.30;;
58864;SDS011;45702;52.982;6.658;2023-04-25T05:38:49;14.93;;;3.22;;
58864;SDS011;45702;52.982;6.658;2023-04-25T05:41:15;16.20;;;3.20;;
58864;SDS011;45702;52.982;6.658;2023-04-25T05:43:40;16.80;;;3.20;;
58864;SDS011;45702;52.982;6.658;2023-04-25T05:46:12;21.25;;;3.60;;
58864;SDS011;45702;52.982;6.658;2023-04-25T05:48:38;17.45;;;3.20;;
58864;SDS011;45702;52.982;6.658;2023-04-25T05:51:04;19.20;;;3.55;;
58864;SDS011;45702;52.982;6.658;2023-04-25T05:53:30;19.52;;;3.47;;
58864;SDS011;45702;52.982;6.658;2023-04-25T05:55:56;19.35;;;4.53;;
58864;SDS011;45702;52.982;6.658;2023-04-25T05:58:21;13.48;;;3.17;;
58864;SDS011;45702;52.982;6.658;2023-04-25T06:00:47;16.05;;;3.17;;
58864;SDS011;45702;52.982;6.658;2023-04-25T06:03:13;19.42;;;3.38;;
58864;SDS011;45702;52.982;6.658;2023-04-25T06:05:41;18.77;;;3.80;;
58864;SDS011;45702;52.982;6.658;2023-04-25T06:08:08;18.50;;;3.45;;
58864;SDS011;45702;52.982;6.658;2023-04-25T06:10:33;16.27;;;3.20;;
58864;SDS011;45702;52.982;6.658;2023-04-25T06:12:59;18.63;;;3.60;;
58864;SDS011;45702;52.982;6.658;2023-04-25T06:15:25;21.88;;;3.25;;
58864;SDS011;45702;52.982;6.658;2023-04-25T06:17:51;25.13;;;3.72;;
58864;SDS011;45702;52.982;6.658;2023-04-25T06:20:16;21.00;;;3.70;;
58864;SDS011;45702;52.982;6.658;2023-04-25T06:22:42;21.15;;;3.70;;
58864;SDS011;45702;52.982;6.658;2023-04-25T06:25:07;20.65;;;3.60;;
58864;SDS011;45702;52.982;6.658;2023-04-25T06:27:34;26.08;;;3.88;;
58864;SDS011;45702;52.982;6.658;2023-04-25T06:29:59;22.20;;;3.88;;
58864;SDS011;45702;52.982;6.658;2023-04-25T06:32:25;14.82;;;3.38;;
58864;SDS011;45702;52.982;6.658;2023-04-25T06:34:52;13.77;;;3.33;;
58864;SDS011;45702;52.982;6.658;2023-04-25T06:37:18;20.00;;;3.50;;
58864;SDS011;45702;52.982;6.658;2023-04-25T06:39:44;23.10;;;3.70;;
58864;SDS011;45702;52.982;6.658;2023-04-25T06:42:09;19.58;;;3.30;;
58864;SDS011;45702;52.982;6.658;2023-04-25T06:44:35;14.23;;;3.22;;
58864;SDS011;45702;52.982;6.658;2023-04-25T06:47:01;15.27;;;3.17;;
58864;SDS011;45702;52.982;6.658;2023-04-25T06:49:27;16.02;;;3.25;;
58864;SDS011;45702;52.982;6.658;2023-04-25T06:51:53;23.95;;;2.90;;
58864;SDS011;45702;52.982;6.658;2023-04-25T06:54:18;19.30;;;3.20;;
58864;SDS011;45702;52.982;6.658;2023-04-25T06:56:44;23.00;;;3.33;;
58864;SDS011;45702;52.982;6.658;2023-04-25T06:59:10;18.85;;;3.05;;
58864;SDS011;45702;52.982;6.658;2023-04-25T07:01:35;19.60;;;2.70;;
58864;SDS011;45702;52.982;6.658;2023-04-25T07:04:01;14.80;;;2.38;;
58864;SDS011;45702;52.982;6.658;2023-04-25T07:06:27;14.05;;;2.50;;
58864;SDS011;45702;52.982;6.658;2023-04-25T07:08:53;21.88;;;2.33;;
58864;SDS011;45702;52.982;6.658;2023-04-25T07:11:19;13.57;;;2.53;;
58864;SDS011;45702;52.982;6.658;2023-04-25T07:13:44;22.25;;;2.80;;
58864;SDS011;45702;52.982;6.658;2023-04-25T07:16:10;20.00;;;3.53;;
58864;SDS011;45702;52.982;6.658;2023-04-25T07:18:36;15.00;;;2.60;;
58864;SDS011;45702;52.982;6.658;2023-04-25T07:21:01;10.95;;;2.75;;
58864;SDS011;45702;52.982;6.658;2023-04-25T07:23:27;19.10;;;2.60;;
58864;SDS011;45702;52.982;6.658;2023-04-25T07:25:53;17.23;;;2.85;;
58864;SDS011;45702;52.982;6.658;2023-04-25T07:28:19;17.05;;;2.20;;
58864;SDS011;45702;52.982;6.658;2023-04-25T07:30:45;19.92;;;2.80;;
58864;SDS011;45702;52.982;6.658;2023-04-25T07:33:11;13.35;;;2.45;;
58864;SDS011;45702;52.982;6.658;2023-04-25T07:35:36;17.95;;;2.55;;
58864;SDS011;45702;52.982;6.658;2023-04-25T07:38:02;11.90;;;2.28;;
58864;SDS011;45702;52.982;6.658;2023-04-25T07:40:28;12.63;;;2.13;;
58864;SDS011;45702;52.982;6.658;2023-04-25T07:42:55;14.90;;;3.05;;
58864;SDS011;45702;52.982;6.658;2023-04-25T07:45:20;16.63;;;2.22;;
58864;SDS011;45702;52.982;6.658;2023-04-25T07:47:46;15.38;;;2.38;;
58864;SDS011;45702;52.982;6.658;2023-04-25T07:50:12;14.27;;;2.30;;
58864;SDS011;45702;52.982;6.658;2023-04-25T07:52:37;17.48;;;2.30;;
58864;SDS011;45702;52.982;6.658;2023-04-25T07:55:03;9.95;;;2.03;;
58864;SDS011;45702;52.982;6.658;2023-04-25T07:57:29;17.50;;;2.20;;
58864;SDS011;45702;52.982;6.658;2023-04-25T07:59:55;12.07;;;2.15;;
58864;SDS011;45702;52.982;6.658;2023-04-25T08:02:21;11.23;;;1.98;;
58864;SDS011;45702;52.982;6.658;2023-04-25T08:04:47;11.32;;;2.03;;
58864;SDS011;45702;52.982;6.658;2023-04-25T08:07:14;12.98;;;2.25;;
58864;SDS011;45702;52.982;6.658;2023-04-25T08:09:40;15.45;;;2.10;;
58864;SDS011;45702;52.982;6.658;2023-04-25T08:12:06;11.15;;;1.95;;
58864;SDS011;45702;52.982;6.658;2023-04-25T08:14:32;15.52;;;2.08;;
58864;SDS011;45702;52.982;6.658;2023-04-25T08:17:01;12.75;;;1.95;;
58864;SDS011;45702;52.982;6.658;2023-04-25T08:19:28;11.10;;;1.88;;
58864;SDS011;45702;52.982;6.658;2023-04-25T08:21:55;15.13;;;2.20;;
58864;SDS011;45702;52.982;6.658;2023-04-25T08:24:21;12.43;;;2.03;;
58864;SDS011;45702;52.982;6.658;2023-04-25T08:26:47;12.05;;;2.53;;
58864;SDS011;45702;52.982;6.658;2023-04-25T08:29:15;13.65;;;2.00;;
58864;SDS011;45702;52.982;6.658;2023-04-25T08:31:40;12.10;;;1.60;;
58864;SDS011;45702;52.982;6.658;2023-04-25T08:34:06;8.52;;;1.73;;
58864;SDS011;45702;52.982;6.658;2023-04-25T08:36:31;14.45;;;1.80;;
58864;SDS011;45702;52.982;6.658;2023-04-25T08:38:59;16.85;;;1.92;;
58864;SDS011;45702;52.982;6.658;2023-04-25T08:41:25;9.55;;;2.10;;
58864;SDS011;45702;52.982;6.658;2023-04-25T08:43:51;11.32;;;2.05;;
58864;SDS011;45702;52.982;6.658;2023-04-25T08:46:18;12.88;;;1.73;;
58864;SDS011;45702;52.982;6.658;2023-04-25T08:48:45;14.95;;;1.77;;
58864;SDS011;45702;52.982;6.658;2023-04-25T08:51:15;17.50;;;2.00;;
58864;SDS011;45702;52.982;6.658;2023-04-25T08:56:16;6.70;;;1.52;;
58864;SDS011;45702;52.982;6.658;2023-04-25T08:58:47;8.45;;;1.80;;
58864;SDS011;45702;52.982;6.658;2023-04-25T09:01:15;9.30;;;1.83;;
58864;SDS011;45702;52.982;6.658;2023-04-25T09:03:41;9.07;;;1.60;;
58864;SDS011;45702;52.982;6.658;2023-04-25T09:06:10;6.43;;;1.63;;
58864;SDS011;45702;52.982;6.658;2023-04-25T09:08:36;7.43;;;1.40;;
58864;SDS011;45702;52.982;6.658;2023-04-25T09:13:31;6.60;;;1.40;;
58864;SDS011;45702;52.982;6.658;2023-04-25T09:15:57;7.25;;;1.50;;
58864;SDS011;45702;52.982;6.658;2023-04-25T09:18:27;7.05;;;1.50;;
58864;SDS011;45702;52.982;6.658;2023-04-25T09:20:55;7.78;;;1.63;;
58864;SDS011;45702;52.982;6.658;2023-04-25T09:23:23;9.20;;;1.73;;
58864;SDS011;45702;52.982;6.658;2023-04-25T09:25:50;7.95;;;1.88;;
58864;SDS011;45702;52.982;6.658;2023-04-25T09:28:22;6.57;;;1.85;;
58864;SDS011;45702;52.982;6.658;2023-04-25T09:30:53;7.35;;;2.22;;
58864;SDS011;45702;52.982;6.658;2023-04-25T09:33:20;5.82;;;1.83;;
58864;SDS011;45702;52.982;6.658;2023-04-25T09:35:51;10.25;;;1.90;;
58864;SDS011;45702;52.982;6.658;2023-04-25T09:38:20;8.45;;;1.60;;
58864;SDS011;45702;52.982;6.658;2023-04-25T09:40:46;9.88;;;2.13;;
58864;SDS011;45702;52.982;6.658;2023-04-25T09:43:21;7.20;;;1.60;;
58864;SDS011;45702;52.982;6.658;2023-04-25T09:45:48;8.82;;;1.60;;
58864;SDS011;45702;52.982;6.658;2023-04-25T09:48:26;11.32;;;1.80;;
58864;SDS011;45702;52.982;6.658;2023-04-25T09:51:11;8.30;;;2.10;;
58864;SDS011;45702;52.982;6.658;2023-04-25T09:53:42;10.98;;;1.98;;
58864;SDS011;45702;52.982;6.658;2023-04-25T09:56:11;8.88;;;1.75;;
58864;SDS011;45702;52.982;6.658;2023-04-25T09:58:38;12.20;;;2.10;;
58864;SDS011;45702;52.982;6.658;2023-04-25T10:01:06;8.77;;;1.88;;
58864;SDS011;45702;52.982;6.658;2023-04-25T10:03:34;13.18;;;1.95;;
58864;SDS011;45702;52.982;6.658;2023-04-25T10:06:02;4.70;;;1.90;;
58864;SDS011;45702;52.982;6.658;2023-04-25T10:08:31;4.95;;;1.73;;
58864;SDS011;45702;52.982;6.658;2023-04-25T10:11:03;9.20;;;2.08;;
58864;SDS011;45702;52.982;6.658;2023-04-25T10:13:30;6.25;;;2.03;;
58864;SDS011;45702;52.982;6.658;2023-04-25T10:15:59;10.18;;;2.22;;
58864;SDS011;45702;52.982;6.658;2023-04-25T10:18:28;9.98;;;2.47;;
58864;SDS011;45702;52.982;6.658;2023-04-25T10:20:55;9.60;;;2.40;;
58864;SDS011;45702;52.982;6.658;2023-04-25T10:23:23;11.03;;;3.00;;
58864;SDS011;45702;52.982;6.658;2023-04-25T10:25:50;9.35;;;2.60;;
58864;SDS011;45702;52.982;6.658;2023-04-25T10:28:16;10.35;;;2.20;;
58864;SDS011;45702;52.982;6.658;2023-04-25T10:30:56;9.35;;;2.17;;
58864;SDS011;45702;52.982;6.658;2023-04-25T10:33:29;14.80;;;2.70;;
58864;SDS011;45702;52.982;6.658;2023-04-25T10:35:58;12.77;;;3.00;;
58864;SDS011;45702;52.982;6.658;2023-04-25T10:38:33;14.70;;;2.92;;
58864;SDS011;45702;52.982;6.658;2023-04-25T10:41:03;17.25;;;3.60;;
58864;SDS011;45702;52.982;6.658;2023-04-25T10:46:03;17.60;;;3.20;;
58864;SDS011;45702;52.982;6.658;2023-04-25T10:48:48;16.95;;;3.17;;
58864;SDS011;45702;52.982;6.658;2023-04-25T10:53:44;15.40;;;3.08;;
58864;SDS011;45702;52.982;6.658;2023-04-25T10:56:11;13.32;;;2.45;;
58864;SDS011;45702;52.982;6.658;2023-04-25T10:58:47;13.95;;;2.40;;
58864;SDS011;45702;52.982;6.658;2023-04-25T11:01:13;13.52;;;2.72;;
58864;SDS011;45702;52.982;6.658;2023-04-25T11:03:41;12.68;;;2.05;;
58864;SDS011;45702;52.982;6.658;2023-04-25T11:06:15;10.32;;;2.00;;
58864;SDS011;45702;52.982;6.658;2023-04-25T11:08:49;16.88;;;2.53;;
58864;SDS011;45702;52.982;6.658;2023-04-25T11:11:19;18.63;;;3.13;;
58864;SDS011;45702;52.982;6.658;2023-04-25T11:13:48;14.35;;;2.00;;
58864;SDS011;45702;52.982;6.658;2023-04-25T11:16:15;15.38;;;2.13;;
58864;SDS011;45702;52.982;6.658;2023-04-25T11:18:42;9.27;;;1.90;;
58864;SDS011;45702;52.982;6.658;2023-04-25T11:21:09;12.52;;;2.33;;
58864;SDS011;45702;52.982;6.658;2023-04-25T11:23:35;11.32;;;2.20;;
58864;SDS011;45702;52.982;6.658;2023-04-25T11:26:02;18.35;;;2.63;;
58864;SDS011;45702;52.982;6.658;2023-04-25T11:28:28;15.43;;;3.67;;
58864;SDS011;45702;52.982;6.658;2023-04-25T11:30:54;13.73;;;2.95;;
58864;SDS011;45702;52.982;6.658;2023-04-25T11:33:23;17.05;;;2.72;;
58864;SDS011;45702;52.982;6.658;2023-04-25T11:35:55;13.77;;;2.50;;
58864;SDS011;45702;52.982;6.658;2023-04-25T11:38:22;10.40;;;2.40;;
58864;SDS011;45702;52.982;6.658;2023-04-25T11:40:50;10.33;;;2.40;;
58864;SDS011;45702;52.982;6.658;2023-04-25T11:43:17;8.95;;;2.35;;
58864;SDS011;45702;52.982;6.658;2023-04-25T11:48:12;9.73;;;2.50;;
58864;SDS011;45702;52.982;6.658;2023-04-25T11:50:38;20.42;;;3.35;;
58864;SDS011;45702;52.982;6.658;2023-04-25T11:53:04;21.02;;;3.40;;
58864;SDS011;45702;52.982;6.658;2023-04-25T11:55:31;14.23;;;3.20;;
58864;SDS011;45702;52.982;6.658;2023-04-25T11:57:59;18.35;;;3.67;;
58864;SDS011;45702;52.982;6.658;2023-04-25T12:00:25;14.88;;;3.30;;
58864;SDS011;45702;52.982;6.658;2023-04-25T12:02:52;17.05;;;3.10;;
58864;SDS011;45702;52.982;6.658;2023-04-25T12:05:19;19.30;;;3.10;;
58864;SDS011;45702;52.982;6.658;2023-04-25T12:07:46;14.27;;;2.42;;
58864;SDS011;45702;52.982;6.658;2023-04-25T12:10:12;12.63;;;3.10;;
58864;SDS011;45702;52.982;6.658;2023-04-25T12:12:43;12.30;;;3.30;;
58864;SDS011;45702;52.982;6.658;2023-04-25T12:17:36;6.72;;;2.70;;
58864;SDS011;45702;52.982;6.658;2023-04-25T12:20:38;13.82;;;2.90;;
58864;SDS011;45702;52.982;6.658;2023-04-25T12:22:57;14.20;;;2.90;;
58864;SDS011;45702;52.982;6.658;2023-04-25T12:25:36;6.90;;;2.10;;
58864;SDS011;45702;52.982;6.658;2023-04-25T12:33:20;9.25;;;2.58;;
58864;SDS011;45702;52.982;6.658;2023-04-25T12:35:46;9.00;;;2.10;;
58864;SDS011;45702;52.982;6.658;2023-04-25T12:38:20;12.10;;;2.30;;
58864;SDS011;45702;52.982;6.658;2023-04-25T12:40:46;8.90;;;2.33;;
58864;SDS011;45702;52.982;6.658;2023-04-25T12:43:12;17.60;;;2.35;;
58864;SDS011;45702;52.982;6.658;2023-04-25T12:45:38;9.40;;;2.10;;
58864;SDS011;45702;52.982;6.658;2023-04-25T12:48:03;11.25;;;2.30;;
58864;SDS011;45702;52.982;6.658;2023-04-25T12:50:29;9.00;;;2.38;;
58864;SDS011;45702;52.982;6.658;2023-04-25T12:52:55;8.05;;;2.13;;
58864;SDS011;45702;52.982;6.658;2023-04-25T12:55:20;11.77;;;2.58;;
58864;SDS011;45702;52.982;6.658;2023-04-25T12:57:48;13.88;;;2.30;;
58864;SDS011;45702;52.982;6.658;2023-04-25T13:00:14;13.18;;;2.15;;
58864;SDS011;45702;52.982;6.658;2023-04-25T13:02:43;11.15;;;2.22;;
58864;SDS011;45702;52.982;6.658;2023-04-25T13:05:08;15.13;;;2.50;;
58864;SDS011;45702;52.982;6.658;2023-04-25T13:07:34;10.57;;;1.95;;
58864;SDS011;45702;52.982;6.658;2023-04-25T13:10:00;6.70;;;2.03;;
58864;SDS011;45702;52.982;6.658;2023-04-25T13:12:27;11.52;;;2.15;;
58864;SDS011;45702;52.982;6.658;2023-04-25T13:14:53;11.00;;;2.13;;
58864;SDS011;45702;52.982;6.658;2023-04-25T13:17:18;6.97;;;2.00;;
58864;SDS011;45702;52.982;6.658;2023-04-25T13:19:44;15.23;;;2.10;;
58864;SDS011;45702;52.982;6.658;2023-04-25T13:22:10;11.60;;;2.28;;
58864;SDS011;45702;52.982;6.658;2023-04-25T13:24:36;10.48;;;2.13;;
58864;SDS011;45702;52.982;6.658;2023-04-25T13:27:01;15.40;;;2.55;;
58864;SDS011;45702;52.982;6.658;2023-04-25T13:29:27;12.77;;;2.50;;
58864;SDS011;45702;52.982;6.658;2023-04-25T13:31:53;11.13;;;2.15;;
58864;SDS011;45702;52.982;6.658;2023-04-25T13:34:19;9.68;;;2.15;;
58864;SDS011;45702;52.982;6.658;2023-04-25T13:36:44;9.57;;;2.03;;
58864;SDS011;45702;52.982;6.658;2023-04-25T13:39:10;11.27;;;2.30;;
58864;SDS011;45702;52.982;6.658;2023-04-25T13:41:36;10.38;;;1.90;;
58864;SDS011;45702;52.982;6.658;2023-04-25T13:44:02;10.65;;;2.13;;
58864;SDS011;45702;52.982;6.658;2023-04-25T13:46:27;11.07;;;2.20;;
58864;SDS011;45702;52.982;6.658;2023-04-25T13:48:53;12.32;;;2.70;;
58864;SDS011;45702;52.982;6.658;2023-04-25T13:51:19;7.43;;;2.35;;
58864;SDS011;45702;52.982;6.658;2023-04-25T13:53:45;8.90;;;1.88;;
58864;SDS011;45702;52.982;6.658;2023-04-25T13:56:11;11.80;;;1.80;;
58864;SDS011;45702;52.982;6.658;2023-04-25T13:58:37;14.77;;;2.47;;
58864;SDS011;45702;52.982;6.658;2023-04-25T14:01:03;8.82;;;2.05;;
58864;SDS011;45702;52.982;6.658;2023-04-25T14:03:28;15.32;;;2.42;;
58864;SDS011;45702;52.982;6.658;2023-04-25T14:05:55;11.50;;;2.60;;
58864;SDS011;45702;52.982;6.658;2023-04-25T14:08:21;14.52;;;2.40;;
58864;SDS011;45702;52.982;6.658;2023-04-25T14:10:46;10.80;;;2.10;;
58864;SDS011;45702;52.982;6.658;2023-04-25T14:13:12;11.50;;;2.40;;
58864;SDS011;45702;52.982;6.658;2023-04-25T14:15:38;11.68;;;2.47;;
58864;SDS011;45702;52.982;6.658;2023-04-25T14:18:03;10.27;;;2.90;;
58864;SDS011;45702;52.982;6.658;2023-04-25T14:20:29;5.38;;;2.67;;
58864;SDS011;45702;52.982;6.658;2023-04-25T14:22:55;6.05;;;2.30;;
58864;SDS011;45702;52.982;6.658;2023-04-25T14:25:23;9.15;;;2.85;;
58864;SDS011;45702;52.982;6.658;2023-04-25T14:27:50;10.93;;;2.85;;
58864;SDS011;45702;52.982;6.658;2023-04-25T14:30:16;10.00;;;2.90;;
58864;SDS011;45702;52.982;6.658;2023-04-25T14:32:43;10.43;;;3.20;;
58864;SDS011;45702;52.982;6.658;2023-04-25T14:35:09;12.05;;;2.90;;
58864;SDS011;45702;52.982;6.658;2023-04-25T14:37:37;9.38;;;2.53;;
58864;SDS011;45702;52.982;6.658;2023-04-25T14:40:03;18.45;;;3.22;;
58864;SDS011;45702;52.982;6.658;2023-04-25T14:42:30;11.95;;;2.60;;
58864;SDS011;45702;52.982;6.658;2023-04-25T14:44:56;11.38;;;2.53;;
58864;SDS011;45702;52.982;6.658;2023-04-25T14:47:22;10.40;;;2.50;;
58864;SDS011;45702;52.982;6.658;2023-04-25T14:49:49;10.57;;;2.47;;
58864;SDS011;45702;52.982;6.658;2023-04-25T14:52:19;11.10;;;2.40;;
58864;SDS011;45702;52.982;6.658;2023-04-25T14:54:45;11.80;;;2.78;;